createdAt,value
2022-10-15T00:02:24.116Z,0.50
2022-10-15T00:12:28.475Z,0.50
2022-10-15T00:22:31.480Z,0.40
2022-10-15T00:32:35.897Z,0.50
2022-10-15T00:42:38.890Z,0.40
2022-10-15T00:52:51.209Z,0.80
2022-10-15T01:02:54.253Z,0.70
2022-10-15T01:13:08.711Z,1.00
2022-10-15T01:23:45.415Z,1.30
2022-10-15T01:33:57.647Z,1.50
2022-10-15T01:44:03.684Z,1.70
2022-10-15T01:54:12.205Z,1.10
2022-10-15T02:04:21.912Z,1.20
2022-10-15T02:14:31.471Z,1.13
2022-10-15T02:24:39.739Z,1.00
2022-10-15T02:34:46.877Z,0.85
2022-10-15T02:44:49.987Z,0.70
2022-10-15T02:54:54.402Z,0.52
2022-10-15T03:04:57.395Z,0.73
2022-10-15T03:15:01.785Z,0.60
2022-10-15T03:25:05.503Z,0.93
2022-10-15T03:35:10.420Z,0.60
2022-10-15T03:45:13.406Z,0.65
2022-10-15T03:55:17.828Z,0.70
2022-10-15T04:05:20.831Z,0.80
2022-10-15T04:15:27.259Z,0.70
2022-10-15T04:25:30.505Z,0.60
2022-10-15T04:35:35.237Z,0.60
2022-10-15T04:45:38.313Z,0.50
2022-10-15T04:55:42.676Z,0.70
2022-10-15T05:05:45.651Z,0.60
2022-10-15T05:15:49.971Z,0.70
2022-10-15T05:25:54.166Z,0.70
2022-10-15T05:35:58.815Z,0.77
2022-10-15T05:46:01.775Z,0.70
2022-10-15T05:56:06.462Z,0.60
2022-10-15T06:06:15.351Z,0.77
2022-10-15T06:16:23.566Z,0.90
2022-10-15T06:26:27.363Z,0.90
2022-10-15T06:36:31.804Z,1.00
2022-10-15T06:46:34.800Z,0.68
2022-10-15T06:56:39.172Z,0.70
2022-10-15T07:06:42.460Z,0.70
2022-10-15T07:16:46.808Z,0.70
2022-10-15T07:26:49.812Z,0.80
2022-10-15T07:36:54.163Z,0.80
2022-10-15T07:46:57.164Z,0.63
2022-10-15T07:57:01.546Z,0.80
2022-10-15T08:07:06.831Z,0.75
2022-10-15T08:17:13.975Z,0.80
2022-10-15T08:27:17.042Z,1.10
2022-10-15T08:37:21.437Z,0.75
2022-10-15T08:47:32.067Z,0.90
2022-10-15T08:57:44.982Z,0.60
2022-10-15T09:07:54.731Z,0.80
2022-10-15T09:17:59.248Z,0.68
2022-10-15T09:28:09.705Z,0.70
2022-10-15T09:38:28.875Z,0.70
2022-10-15T09:48:37.268Z,0.68
2022-10-15T09:58:50.856Z,0.80
2022-10-15T10:08:56.555Z,0.70
2022-10-15T10:19:13.737Z,0.90
2022-10-15T10:29:36.289Z,0.60
2022-10-15T10:39:40.758Z,0.80
2022-10-15T10:49:45.817Z,0.70
2022-10-15T10:59:53.349Z,0.80
2022-10-15T11:10:03.090Z,0.80
2022-10-15T11:20:45.589Z,0.68
2022-10-15T11:30:49.100Z,0.60
2022-10-15T11:41:24.535Z,0.52
2022-10-15T11:51:34.294Z,0.60
2022-10-15T12:01:45.399Z,0.70
2022-10-15T12:11:53.963Z,0.85
2022-10-15T12:22:11.352Z,0.60
2022-10-15T12:32:24.490Z,0.63
2022-10-15T12:42:32.357Z,0.50
2022-10-15T12:52:59.248Z,0.50
2022-10-15T13:03:20.353Z,0.60
2022-10-15T13:13:26.268Z,0.50
2022-10-15T13:23:32.393Z,0.50
2022-10-15T13:33:42.263Z,0.60
2022-10-15T13:43:58.458Z,0.60
2022-10-15T13:54:03.396Z,0.50
2022-10-15T14:04:18.340Z,0.50
2022-10-15T14:14:33.096Z,0.68
2022-10-15T14:24:39.650Z,0.70
2022-10-15T14:34:42.682Z,0.80
2022-10-15T14:44:48.740Z,0.70
2022-10-15T14:55:03.800Z,0.68
2022-10-15T15:05:21.955Z,0.60
2022-10-15T15:15:27.428Z,1.30
2022-10-15T15:25:35.319Z,1.00
2022-10-15T15:35:44.193Z,0.70
2022-10-15T15:45:49.001Z,0.93
2022-10-15T15:55:52.004Z,0.90
2022-10-15T16:05:56.433Z,0.65
2022-10-15T16:15:59.424Z,0.70
2022-10-15T16:26:03.750Z,0.80
2022-10-15T16:36:07.244Z,0.63
2022-10-15T16:46:11.752Z,0.80
2022-10-15T16:56:16.945Z,0.88
2022-10-15T17:06:22.827Z,2.00
2022-10-15T17:16:28.246Z,0.80
2022-10-15T17:26:36.211Z,0.73
2022-10-15T17:36:44.794Z,1.10
2022-10-15T17:56:57.074Z,1.50
2022-10-15T18:07:01.481Z,1.63
2022-10-15T18:17:05.029Z,1.80
2022-10-15T18:27:09.434Z,2.42
2022-10-15T18:37:12.432Z,2.67
2022-10-15T18:47:16.808Z,2.70
2022-10-15T18:57:19.800Z,2.70
2022-10-15T19:07:24.182Z,2.80
2022-10-15T19:17:28.031Z,2.10
2022-10-15T19:27:33.058Z,2.30
2022-10-15T19:37:36.036Z,2.33
2022-10-15T19:47:40.411Z,2.58
2022-10-15T19:57:43.464Z,2.67
2022-10-15T20:07:47.842Z,2.35
2022-10-15T20:17:50.828Z,2.15
2022-10-15T20:27:55.373Z,2.42
2022-10-15T20:37:58.305Z,2.10
2022-10-15T20:48:04.495Z,2.10
2022-10-15T20:58:07.947Z,2.10
2022-10-15T21:08:12.368Z,1.85
2022-10-15T21:18:15.603Z,1.80
2022-10-15T21:28:20.038Z,2.00
2022-10-15T21:38:23.087Z,1.77
2022-10-15T21:48:28.564Z,1.90
2022-10-15T21:58:31.543Z,1.95
2022-10-15T22:08:36.372Z,2.00
2022-10-15T22:18:40.186Z,2.30
2022-10-15T22:28:44.985Z,1.30
2022-10-15T22:38:49.841Z,1.73
2022-10-15T22:48:54.585Z,1.90
2022-10-15T22:58:58.629Z,2.15
2022-10-15T23:09:04.375Z,2.10
2022-10-15T23:19:09.305Z,1.80
2022-10-15T23:29:15.984Z,1.70
2022-10-15T23:39:21.319Z,1.90
2022-10-15T23:49:25.664Z,1.70
2022-10-15T23:59:28.685Z,1.60
